createdAt,value
2023-03-19T18:52:02.587Z,16.23
2023-03-19T18:54:30.818Z,15.40
2023-03-19T18:56:58.926Z,17.43
2023-03-19T18:59:29.706Z,14.83
2023-03-19T19:02:00.127Z,16.67
2023-03-19T19:04:29.602Z,15.07
2023-03-19T19:06:57.298Z,16.00
2023-03-19T19:09:23.925Z,15.10
2023-03-19T19:11:53.532Z,15.20
2023-03-19T19:14:22.935Z,14.93
2023-03-19T19:16:50.929Z,15.77
2023-03-19T19:19:21.583Z,17.83
2023-03-19T19:21:48.221Z,15.90
2023-03-19T19:24:16.957Z,14.07
2023-03-19T19:29:03.101Z,14.97
2023-03-19T19:32:09.756Z,14.73
2023-03-19T19:34:58.146Z,12.73
2023-03-19T19:40:27.126Z,12.53
2023-03-19T19:43:00.009Z,13.63
2023-03-19T19:45:31.908Z,14.73
2023-03-19T19:47:59.400Z,14.00
2023-03-19T19:50:41.477Z,14.93
2023-03-19T19:53:11.256Z,12.73
2023-03-19T19:55:38.506Z,12.03
2023-03-19T19:58:08.532Z,13.27
2023-03-19T20:00:53.300Z,13.27
2023-03-19T20:03:30.778Z,13.17
2023-03-19T20:05:58.645Z,11.57
2023-03-19T20:08:26.281Z,12.97
2023-03-19T20:10:56.976Z,12.47
2023-03-19T20:13:26.098Z,13.80
2023-03-19T20:16:00.636Z,13.00
2023-03-19T20:18:30.794Z,12.00
2023-03-19T20:20:57.696Z,13.87
2023-03-19T20:23:24.902Z,13.70
2023-03-19T20:25:54.666Z,13.13
2023-03-19T20:28:23.571Z,14.03
2023-03-19T20:30:57.485Z,13.43
2023-03-19T20:33:28.041Z,12.17
2023-03-19T20:35:54.844Z,12.03
2023-03-19T20:38:21.472Z,13.03
2023-03-19T20:40:52.809Z,13.40
2023-03-19T20:43:28.749Z,14.00
2023-03-19T20:45:56.364Z,13.47
2023-03-19T20:48:24.475Z,14.93
2023-03-19T20:50:51.531Z,14.57
2023-03-19T20:53:18.473Z,14.50
2023-03-19T20:55:51.506Z,14.13
2023-03-19T20:58:22.916Z,13.80
2023-03-19T21:00:55.686Z,13.30
2023-03-19T21:03:27.554Z,13.77
2023-03-19T21:05:57.801Z,14.03
2023-03-19T21:08:32.208Z,13.13
2023-03-19T21:10:59.092Z,13.03
2023-03-19T21:13:29.244Z,12.17
2023-03-19T21:15:55.987Z,13.40
2023-03-19T21:18:23.069Z,12.43
2023-03-19T21:21:03.066Z,10.63
2023-03-19T21:23:34.060Z,10.73
2023-03-19T21:26:08.806Z,11.60
2023-03-19T21:28:37.223Z,10.33
2023-03-19T21:31:05.542Z,10.33
2023-03-19T21:33:34.876Z,9.97
2023-03-19T21:36:03.216Z,8.87
2023-03-19T21:38:32.255Z,10.70
2023-03-19T21:41:01.028Z,9.47
2023-03-19T21:43:34.211Z,11.00
2023-03-19T21:46:23.125Z,9.50
2023-03-19T21:48:51.053Z,9.47
2023-03-19T21:51:21.453Z,7.97
2023-03-19T21:53:48.820Z,8.47
2023-03-19T21:56:21.587Z,7.63
2023-03-19T21:58:52.174Z,7.37
2023-03-19T22:01:24.694Z,7.67
2023-03-19T22:03:52.312Z,8.37
2023-03-19T22:06:23.852Z,6.80
2023-03-19T22:08:53.044Z,6.47
2023-03-19T22:11:27.330Z,6.87
2023-03-19T22:14:03.366Z,6.57
2023-03-19T22:16:32.018Z,6.17
2023-03-19T22:18:58.970Z,6.07
2023-03-19T22:21:28.882Z,5.70
2023-03-19T22:24:04.256Z,6.43
2023-03-19T22:26:44.874Z,5.30
2023-03-19T22:29:16.237Z,6.80
2023-03-19T22:31:43.252Z,6.57
2023-03-19T22:34:13.224Z,6.23
2023-03-19T22:36:40.688Z,6.53
2023-03-19T22:39:07.858Z,6.33
2023-03-19T22:41:37.043Z,6.23
2023-03-19T22:44:09.248Z,6.70
2023-03-19T22:46:35.990Z,7.23
2023-03-19T22:49:08.330Z,6.33
2023-03-19T22:51:34.937Z,6.03
2023-03-19T22:54:04.927Z,6.47
2023-03-19T22:56:32.048Z,6.20
2023-03-19T22:58:58.694Z,6.83
2023-03-19T23:01:35.671Z,6.07
2023-03-19T23:04:16.689Z,6.10
2023-03-19T23:06:55.870Z,6.27
2023-03-19T23:09:25.399Z,6.07
2023-03-19T23:11:57.071Z,6.17
2023-03-19T23:14:30.249Z,6.40
2023-03-19T23:17:06.386Z,6.13
2023-03-19T23:19:34.959Z,6.30
2023-03-19T23:22:11.624Z,6.93
2023-03-19T23:24:38.934Z,6.00
2023-03-19T23:27:22.459Z,6.17
2023-03-19T23:29:49.829Z,6.60
2023-03-19T23:32:19.669Z,6.07
2023-03-19T23:34:58.106Z,5.73
2023-03-19T23:37:27.978Z,7.00
2023-03-19T23:39:58.417Z,6.70
2023-03-19T23:42:28.923Z,6.37
2023-03-19T23:45:07.548Z,6.50
2023-03-19T23:47:35.565Z,5.83
2023-03-19T23:50:24.804Z,6.97
2023-03-19T23:52:51.626Z,6.50
2023-03-19T23:55:19.076Z,7.03
2023-03-19T23:57:55.653Z,6.53
